Niagara Falls, New York
Current Conditions -  °F | °C
As of 9:53 AM on Tuesday 21 Oct 2014 (Local Time) from KIAG Reporting Station
Overcast Overcast  
Wind Chill: 51°   Ceiling: 1400
Heat Index: 51°   Visibility: 7mi
Dew Point: 48°   Wind: 6mph
Humidity: 89%   Direction: 300°WNW
Pressure: 29.84"   Gusts: NA
Location:  43.1°N, 79.05°W
Report Text: KIAG 211353Z 30005KT 7SM FEW009 BKN014 OVC030 11/09 A2984 RMK AO2 SLP108 T01060089
Loading
Personal Weather Stations






























Interactive Weather Map
Tropical Storm Tracking
New forecast layout! Learn more

10-Day Weather Forecast

Advertisements
Track Severe Weather on mobile